Time;durP1;ratioP1;P1;durP2;ratioP2;P2;SDS_P1;SDS_P2;PMS_P1;PMS_P2;Temp;Humidity;BMP_temperature;BMP_pressure;BME280_temperature;BME280_humidity;BME280_pressure;Samples;Min_cycle;Max_cycle;Signal;HPM_P1;HPM_P2
2023/12/09 00:01:24;;;;;;;3.60;3.30;;;21.70;55.90;;;;;;5075665;28;20457;-72
2023/12/09 00:03:52;;;;;;;4.03;3.73;;;21.70;55.90;;;;;;5075287;28;20511;-72
2023/12/09 00:06:21;;;;;;;4.23;3.83;;;21.70;55.90;;;;;;5073005;28;20441;-72
2023/12/09 00:08:50;;;;;;;3.47;3.27;;;21.70;55.90;;;;;;5079795;28;20456;-72
2023/12/09 00:11:18;;;;;;;4.10;3.70;;;21.70;55.90;;;;;;5075754;28;20469;-72
2023/12/09 00:13:48;;;;;;;4.03;3.73;;;21.70;55.90;;;;;;5072863;28;20453;-72
2023/12/09 00:16:18;;;;;;;3.87;3.47;;;21.70;56.00;;;;;;5081016;28;20454;-72
2023/12/09 00:18:46;;;;;;;3.83;3.53;;;21.60;55.90;;;;;;5081526;28;20448;-72
2023/12/09 00:21:15;;;;;;;3.80;3.50;;;21.60;55.90;;;;;;5082474;28;20441;-71
2023/12/09 00:23:43;;;;;;;3.23;2.97;;;21.60;55.90;;;;;;5082230;28;20447;-72
2023/12/09 00:26:15;;;;;;;3.53;3.23;;;21.60;55.90;;;;;;5076170;28;20951;-71
2023/12/09 00:28:44;;;;;;;3.50;3.30;;;21.60;55.90;;;;;;5083013;28;20441;-71
2023/12/09 00:31:13;;;;;;;3.20;3.00;;;21.60;55.80;;;;;;5071436;28;20469;-72
2023/12/09 00:33:42;;;;;;;3.70;3.40;;;21.60;55.80;;;;;;5077180;28;20444;-72
2023/12/09 00:36:10;;;;;;;3.13;2.87;;;21.60;55.80;;;;;;5082551;28;20435;-72
2023/12/09 00:38:39;;;;;;;3.60;3.27;;;21.60;55.80;;;;;;5077572;28;20448;-71
2023/12/09 00:41:08;;;;;;;3.27;3.00;;;21.60;55.70;;;;;;5083594;28;20436;-71
2023/12/09 00:43:36;;;;;;;3.83;3.50;;;21.60;55.70;;;;;;5079282;28;20782;-71
2023/12/09 00:46:04;;;;;;;2.90;2.70;;;21.50;55.70;;;;;;5084582;28;20451;-72
2023/12/09 00:48:34;;;;;;;3.60;3.37;;;21.50;55.70;;;;;;5079006;28;20502;-72
2023/12/09 00:51:03;;;;;;;3.57;3.27;;;21.50;55.70;;;;;;5079016;28;20437;-72
2023/12/09 00:53:31;;;;;;;3.10;2.90;;;21.50;55.70;;;;;;5078081;28;20452;-72
2023/12/09 00:55:59;;;;;;;3.33;3.03;;;21.50;55.70;;;;;;5079600;28;20550;-71
2023/12/09 00:58:27;;;;;;;3.37;3.17;;;21.50;55.60;;;;;;5078563;28;20451;-72
2023/12/09 01:00:55;;;;;;;3.07;2.87;;;21.50;55.60;;;;;;5080023;28;20454;-73
2023/12/09 01:03:24;;;;;;;3.67;3.30;;;21.50;55.60;;;;;;5074479;28;20567;-71
2023/12/09 01:05:53;;;;;;;4.20;3.30;;;21.50;55.60;;;;;;5074872;28;21077;-72
2023/12/09 01:08:22;;;;;;;3.20;2.90;;;21.50;55.50;;;;;;5072541;28;20552;-72
2023/12/09 01:10:50;;;;;;;3.20;3.00;;;21.50;55.50;;;;;;5071804;28;20443;-72
2023/12/09 01:13:18;;;;;;;3.83;3.00;;;21.40;55.50;;;;;;5076010;28;20543;-72
2023/12/09 01:15:46;;;;;;;4.90;2.70;;;21.40;55.60;;;;;;5067591;28;20453;-71
2023/12/09 01:18:15;;;;;;;3.03;2.83;;;21.40;55.50;;;;;;5075135;28;20444;-71
2023/12/09 01:20:43;;;;;;;3.87;3.50;;;21.40;55.50;;;;;;5082115;28;20451;-72
2023/12/09 01:23:13;;;;;;;3.17;2.97;;;21.40;55.60;;;;;;5076817;28;20482;-72
2023/12/09 01:25:42;;;;;;;3.40;2.70;;;21.40;55.60;;;;;;5071759;28;20451;-72
2023/12/09 01:28:10;;;;;;;3.00;2.80;;;21.40;55.60;;;;;;5082149;28;21006;-72
2023/12/09 01:30:38;;;;;;;2.73;2.53;;;21.40;55.60;;;;;;5076954;28;20452;-71
2023/12/09 01:33:06;;;;;;;2.93;2.73;;;21.30;55.60;;;;;;5081135;28;20472;-75
2023/12/09 01:35:35;;;;;;;3.07;2.87;;;21.30;55.60;;;;;;5079630;28;20456;-72
2023/12/09 01:38:03;;;;;;;3.73;3.43;;;21.30;55.70;;;;;;5080377;28;20455;-71
2023/12/09 01:40:33;;;;;;;3.90;3.00;;;21.30;55.70;;;;;;5078485;28;20440;-71
2023/12/09 01:43:01;;;;;;;3.00;2.80;;;21.30;55.80;;;;;;5077796;28;20446;-73
2023/12/09 01:45:29;;;;;;;3.30;3.00;;;21.30;55.80;;;;;;5078925;28;20433;-71
2023/12/09 01:47:57;;;;;;;3.47;3.17;;;21.30;55.80;;;;;;5077938;28;20464;-72
2023/12/09 01:50:26;;;;;;;3.30;3.00;;;21.30;55.80;;;;;;5083753;28;20443;-72
2023/12/09 01:52:55;;;;;;;3.37;3.07;;;21.30;55.90;;;;;;5080834;28;20490;-73
2023/12/09 01:55:25;;;;;;;3.40;3.10;;;21.20;55.90;;;;;;5082478;28;20440;-73
2023/12/09 01:57:54;;;;;;;3.17;2.87;;;21.20;55.90;;;;;;5083054;28;20789;-73
2023/12/09 02:00:23;;;;;;;2.60;2.40;;;21.20;55.90;;;;;;5078842;28;20829;-72
2023/12/09 02:02:51;;;;;;;2.50;2.33;;;21.20;55.70;;;;;;5082296;28;20494;-73
2023/12/09 02:05:20;;;;;;;3.20;2.90;;;21.20;55.60;;;;;;5077784;28;20466;-74
2023/12/09 02:07:48;;;;;;;4.30;2.90;;;21.20;55.60;;;;;;5082710;28;20823;-72
2023/12/09 02:10:17;;;;;;;3.10;2.90;;;21.20;55.60;;;;;;5081409;28;20454;-72
2023/12/09 02:12:57;;;;;;;3.40;3.10;;;21.20;55.40;;;;;;5077247;28;21021;-72
2023/12/09 02:15:34;;;;;;;3.20;2.70;;;21.20;55.40;;;;;;5075906;28;20444;-72
2023/12/09 02:18:05;;;;;;;3.47;3.00;;;21.10;55.70;;;;;;5076785;28;20436;-72
2023/12/09 02:20:34;;;;;;;3.13;2.93;;;21.10;55.70;;;;;;5079540;28;20792;-72
2023/12/09 02:23:08;;;;;;;3.10;2.87;;;21.10;55.70;;;;;;5074711;28;20501;-71
2023/12/09 02:25:37;;;;;;;3.20;2.90;;;21.10;55.60;;;;;;5080101;28;21335;-72
2023/12/09 02:28:11;;;;;;;2.90;2.70;;;21.10;55.40;;;;;;5078102;28;20513;-73
2023/12/09 02:30:46;;;;;;;3.13;2.70;;;21.10;55.70;;;;;;5078846;28;20452;-71
2023/12/09 02:33:16;;;;;;;3.23;2.93;;;21.10;55.40;;;;;;5082035;28;21361;-72
2023/12/09 02:35:47;;;;;;;3.30;3.10;;;21.00;55.60;;;;;;5081392;28;20522;-72
2023/12/09 02:38:17;;;;;;;2.73;2.53;;;21.00;55.70;;;;;;5077547;28;21350;-72
2023/12/09 02:40:46;;;;;;;3.50;3.20;;;21.00;55.70;;;;;;5076368;28;20843;-72
2023/12/09 02:43:15;;;;;;;2.33;2.23;;;21.00;55.80;;;;;;5085338;28;20492;-72
2023/12/09 02:45:45;;;;;;;3.43;3.13;;;21.00;55.80;;;;;;5080662;28;20440;-73
2023/12/09 02:48:14;;;;;;;2.33;2.23;;;21.00;55.80;;;;;;5080562;28;20451;-72
2023/12/09 02:50:42;;;;;;;3.30;3.00;;;21.00;55.80;;;;;;5077283;28;20494;-72
2023/12/09 02:53:11;;;;;;;3.30;3.00;;;21.00;55.70;;;;;;5085172;28;20500;-72
2023/12/09 02:55:41;;;;;;;2.50;2.30;;;21.00;55.80;;;;;;5074065;28;20476;-72
2023/12/09 02:58:09;;;;;;;7.20;3.50;;;21.00;55.70;;;;;;5084072;28;20489;-72
2023/12/09 03:00:37;;;;;;;3.03;2.83;;;21.00;55.60;;;;;;5081451;28;20935;-72
2023/12/09 03:03:05;;;;;;;3.47;3.17;;;21.00;55.50;;;;;;5080592;28;20476;-72
2023/12/09 03:05:34;;;;;;;2.70;2.50;;;20.90;55.60;;;;;;5075616;28;20488;-71
2023/12/09 03:08:02;;;;;;;3.00;2.80;;;20.90;55.60;;;;;;5081308;28;20536;-72
2023/12/09 03:10:30;;;;;;;2.97;2.77;;;20.90;55.60;;;;;;5078726;28;20780;-71
2023/12/09 03:13:00;;;;;;;3.30;3.00;;;20.90;55.60;;;;;;5079351;28;20479;-73
2023/12/09 03:15:28;;;;;;;2.50;2.30;;;20.90;55.60;;;;;;5082942;28;20443;-72
2023/12/09 03:17:56;;;;;;;2.57;2.37;;;20.90;55.80;;;;;;5080021;28;20462;-72
2023/12/09 03:20:25;;;;;;;2.80;2.60;;;20.90;56.00;;;;;;5080013;28;20485;-71
2023/12/09 03:22:53;;;;;;;3.07;2.87;;;20.90;55.90;;;;;;5078477;28;20939;-71
2023/12/09 03:25:21;;;;;;;2.70;2.50;;;20.90;56.00;;;;;;5076959;28;20507;-72
2023/12/09 03:27:49;;;;;;;3.07;2.77;;;20.90;56.00;;;;;;5073307;28;21060;-72
2023/12/09 03:30:19;;;;;;;2.60;2.40;;;20.90;56.00;;;;;;5079021;28;20789;-74
2023/12/09 03:32:47;;;;;;;3.20;3.00;;;20.80;55.90;;;;;;5081366;28;20471;-72
2023/12/09 03:35:17;;;;;;;2.83;2.63;;;20.80;56.00;;;;;;5082806;28;20935;-73
2023/12/09 03:37:45;;;;;;;3.47;3.17;;;20.80;55.60;;;;;;5077202;28;20446;-72
2023/12/09 03:40:13;;;;;;;2.00;1.90;;;20.80;55.80;;;;;;5080535;28;21840;-72
2023/12/09 03:42:41;;;;;;;2.30;2.17;;;20.80;56.00;;;;;;5081059;28;20946;-72
2023/12/09 03:45:10;;;;;;;2.50;2.30;;;20.80;56.00;;;;;;5078952;28;20463;-72
2023/12/09 03:47:40;;;;;;;2.27;1.90;;;20.80;55.90;;;;;;5075547;28;20477;-72
2023/12/09 03:50:09;;;;;;;2.30;2.10;;;20.80;56.00;;;;;;5087153;28;20468;-72
2023/12/09 03:52:37;;;;;;;2.63;2.43;;;20.80;56.00;;;;;;5079497;28;20538;-72
2023/12/09 03:55:06;;;;;;;2.23;1.93;;;20.80;55.80;;;;;;5077157;28;20451;-72
2023/12/09 03:57:34;;;;;;;2.33;2.00;;;20.80;55.90;;;;;;5077320;28;20452;-71
2023/12/09 04:00:04;;;;;;;2.50;2.13;;;20.80;55.90;;;;;;5086096;28;20855;-72
2023/12/09 04:02:33;;;;;;;1.83;1.73;;;20.80;55.70;;;;;;5079085;28;20909;-72
2023/12/09 04:05:03;;;;;;;2.43;2.23;;;20.80;55.80;;;;;;5080717;28;20467;-72
2023/12/09 04:07:32;;;;;;;2.50;2.30;;;20.80;55.90;;;;;;5077712;28;20779;-72
2023/12/09 04:10:00;;;;;;;2.30;2.10;;;20.80;55.90;;;;;;5080327;28;20449;-72
2023/12/09 04:12:28;;;;;;;2.83;2.30;;;20.80;55.90;;;;;;5081061;28;20509;-72
2023/12/09 04:14:57;;;;;;;2.20;2.00;;;20.80;55.90;;;;;;5081491;28;20858;-73
2023/12/09 04:17:25;;;;;;;2.30;2.20;;;20.80;55.90;;;;;;5075749;28;20442;-72
2023/12/09 04:19:53;;;;;;;2.53;2.33;;;20.80;55.90;;;;;;5078035;28;20454;-73
2023/12/09 04:22:23;;;;;;;2.60;2.40;;;20.80;55.90;;;;;;5079490;28;20446;-71
2023/12/09 04:24:52;;;;;;;1.80;1.70;;;20.80;55.90;;;;;;5080089;28;20455;-72
2023/12/09 04:27:20;;;;;;;2.33;2.13;;;20.80;55.80;;;;;;5073556;28;20942;-72
2023/12/09 04:29:49;;;;;;;2.10;2.00;;;20.80;55.80;;;;;;5079879;28;20437;-73
2023/12/09 04:32:17;;;;;;;2.20;2.00;;;20.70;55.80;;;;;;5071243;28;20442;-71
2023/12/09 04:34:45;;;;;;;2.43;2.10;;;20.70;55.90;;;;;;5072634;28;20534;-72
2023/12/09 04:37:13;;;;;;;2.43;2.23;;;20.70;55.70;;;;;;5077999;28;20455;-72
2023/12/09 04:39:43;;;;;;;2.40;1.97;;;20.70;55.80;;;;;;5079544;28;20507;-72
2023/12/09 04:42:11;;;;;;;2.50;2.10;;;20.70;55.80;;;;;;5076722;28;20469;-72
2023/12/09 04:44:40;;;;;;;2.10;2.00;;;20.70;55.90;;;;;;5075734;28;20443;-72
2023/12/09 04:47:08;;;;;;;2.37;2.07;;;20.70;55.90;;;;;;5082424;28;20441;-73
2023/12/09 04:49:36;;;;;;;2.13;1.93;;;20.70;55.80;;;;;;5074711;28;20486;-72
2023/12/09 04:52:05;;;;;;;2.83;2.60;;;20.70;55.80;;;;;;5086664;28;20486;-73
2023/12/09 04:54:33;;;;;;;1.70;1.60;;;20.70;55.80;;;;;;5075404;28;20466;-72
2023/12/09 04:57:03;;;;;;;2.10;1.90;;;20.70;55.80;;;;;;5073128;28;20915;-72
2023/12/09 04:59:32;;;;;;;2.40;2.00;;;20.70;55.80;;;;;;5078194;28;20865;-72
2023/12/09 05:02:00;;;;;;;2.20;2.00;;;20.70;55.80;;;;;;5079439;28;20543;-72
2023/12/09 05:04:28;;;;;;;2.80;2.37;;;20.70;55.80;;;;;;5077256;28;20486;-72
2023/12/09 05:06:56;;;;;;;2.30;2.10;;;20.70;55.80;;;;;;5079826;28;20432;-72
2023/12/09 05:09:24;;;;;;;1.70;1.60;;;20.70;55.70;;;;;;5078493;28;20437;-72
2023/12/09 05:11:53;;;;;;;2.10;2.00;;;20.80;55.60;;;;;;5076895;28;20438;-72
2023/12/09 05:14:22;;;;;;;2.20;2.00;;;20.80;55.50;;;;;;5077239;28;20480;-73
2023/12/09 05:16:51;;;;;;;3.20;1.80;;;20.80;55.40;;;;;;5079836;28;20918;-72
2023/12/09 05:19:19;;;;;;;1.87;1.77;;;20.80;55.40;;;;;;5073470;28;20457;-72
2023/12/09 05:21:47;;;;;;;2.67;2.43;;;20.90;55.40;;;;;;5085725;28;20949;-73
2023/12/09 05:24:16;;;;;;;2.03;1.83;;;20.90;55.30;;;;;;5087714;28;20525;-72
2023/12/09 05:26:44;;;;;;;2.10;1.90;;;20.90;55.30;;;;;;5078059;28;20463;-72
2023/12/09 05:29:13;;;;;;;1.67;1.57;;;21.00;55.10;;;;;;5082922;28;20447;-72
2023/12/09 05:31:42;;;;;;;1.40;1.30;;;21.00;55.10;;;;;;5083197;28;20447;-73
2023/12/09 05:34:10;;;;;;;2.10;1.90;;;21.00;55.10;;;;;;5077269;28;20475;-71
2023/12/09 05:36:39;;;;;;;1.50;1.40;;;21.10;55.10;;;;;;5083450;28;21010;-72
2023/12/09 05:39:07;;;;;;;1.90;1.80;;;21.10;55.00;;;;;;5083921;28;20438;-72
2023/12/09 05:41:35;;;;;;;1.67;1.57;;;21.10;55.00;;;;;;5084328;28;20473;-72
2023/12/09 05:44:04;;;;;;;1.83;1.73;;;21.20;55.10;;;;;;5084453;28;20451;-72
2023/12/09 05:46:32;;;;;;;2.63;1.30;;;21.20;55.10;;;;;;5085524;28;20502;-72
2023/12/09 05:49:02;;;;;;;1.63;1.53;;;21.30;55.10;;;;;;5082798;28;20991;-72
2023/12/09 05:51:30;;;;;;;1.63;1.53;;;21.30;55.20;;;;;;5079585;28;20556;-72
2023/12/09 05:53:58;;;;;;;1.53;1.40;;;21.30;55.30;;;;;;5083637;28;20448;-73
2023/12/09 05:56:27;;;;;;;1.77;1.67;;;21.30;55.30;;;;;;5080106;28;20444;-73
2023/12/09 05:58:55;;;;;;;1.50;1.40;;;21.30;55.30;;;;;;5080010;28;20461;-72
2023/12/09 06:01:23;;;;;;;1.60;1.50;;;21.40;55.40;;;;;;5073250;28;20514;-72
2023/12/09 06:03:52;;;;;;;1.60;1.50;;;21.40;55.40;;;;;;5087638;28;20855;-72
2023/12/09 06:06:21;;;;;;;1.67;1.57;;;21.40;55.40;;;;;;5087101;28;20445;-75
2023/12/09 06:08:50;;;;;;;1.90;1.80;;;21.40;55.40;;;;;;5080889;28;20432;-74
2023/12/09 06:11:18;;;;;;;2.70;1.40;;;21.50;55.40;;;;;;5079808;28;20916;-73
2023/12/09 06:13:46;;;;;;;2.30;2.03;;;21.50;55.30;;;;;;5083912;28;20505;-72
2023/12/09 06:16:18;;;;;;;1.80;1.70;;;21.60;55.30;;;;;;5073238;28;20470;-72
2023/12/09 06:18:47;;;;;;;1.80;1.70;;;21.60;55.20;;;;;;5084450;28;20535;-72
2023/12/09 06:21:23;;;;;;;2.00;1.63;;;21.60;55.20;;;;;;5082882;28;20440;-72
2023/12/09 06:23:53;;;;;;;1.50;1.40;;;21.60;55.10;;;;;;5079458;28;20435;-73
2023/12/09 06:26:21;;;;;;;2.03;1.93;;;21.70;55.10;;;;;;5078790;28;20456;-74
2023/12/09 06:28:50;;;;;;;1.50;1.40;;;21.70;54.90;;;;;;5081302;28;20793;-72
2023/12/09 06:31:18;;;;;;;1.93;1.83;;;21.70;54.90;;;;;;5080371;28;21410;-72
2023/12/09 06:33:46;;;;;;;1.70;1.60;;;21.70;54.90;;;;;;5078827;28;20459;-72
2023/12/09 06:36:14;;;;;;;1.43;1.33;;;21.70;54.90;;;;;;5082157;28;20476;-72
2023/12/09 06:38:44;;;;;;;1.40;1.27;;;21.70;54.90;;;;;;5079322;28;20442;-73
2023/12/09 06:41:12;;;;;;;1.37;1.30;;;21.70;54.90;;;;;;5077137;28;20442;-72
2023/12/09 06:43:40;;;;;;;1.70;1.60;;;21.70;55.00;;;;;;5078567;28;20463;-71
2023/12/09 06:46:08;;;;;;;1.73;1.63;;;21.70;55.00;;;;;;5082314;28;20943;-73
2023/12/09 06:48:38;;;;;;;1.70;1.60;;;21.70;55.00;;;;;;5086070;28;20444;-72
2023/12/09 06:51:14;;;;;;;1.60;1.50;;;21.70;55.00;;;;;;5082442;28;20502;-72
2023/12/09 06:53:43;;;;;;;2.37;1.57;;;21.60;55.00;;;;;;5084229;28;20472;-71
2023/12/09 06:56:19;;;;;;;1.50;1.40;;;21.60;55.00;;;;;;5085606;28;20555;-72
2023/12/09 06:58:48;;;;;;;1.47;1.37;;;21.60;55.00;;;;;;5074128;28;20555;-74
2023/12/09 07:01:22;;;;;;;2.53;2.00;;;21.60;55.00;;;;;;5074659;28;20451;-72
2023/12/09 07:03:51;;;;;;;2.30;1.63;;;21.60;55.00;;;;;;5082505;28;21068;-73
2023/12/09 07:06:22;;;;;;;1.60;1.50;;;21.60;55.10;;;;;;5077194;28;20480;-73
2023/12/09 07:08:53;;;;;;;1.43;1.33;;;21.60;55.00;;;;;;5079920;28;20450;-71
2023/12/09 07:11:25;;;;;;;1.53;1.43;;;21.60;55.10;;;;;;5084055;28;20497;-72
2023/12/09 07:13:53;;;;;;;1.60;1.50;;;21.60;55.10;;;;;;5072444;28;20452;-72
2023/12/09 07:16:22;;;;;;;1.67;1.30;;;21.60;55.00;;;;;;5072176;28;20477;-73
2023/12/09 07:18:51;;;;;;;1.70;1.60;;;21.60;55.00;;;;;;5072517;28;20445;-72
2023/12/09 07:21:19;;;;;;;1.63;1.50;;;21.70;54.90;;;;;;5071434;28;20968;-73
2023/12/09 07:23:48;;;;;;;2.00;1.90;;;21.70;54.90;;;;;;5070756;28;20464;-72
2023/12/09 07:26:18;;;;;;;1.50;1.40;;;21.70;54.90;;;;;;5074217;28;20492;-73
2023/12/09 07:28:46;;;;;;;1.83;1.73;;;21.70;54.90;;;;;;5071151;28;20450;-72
2023/12/09 07:31:15;;;;;;;2.00;1.90;;;21.70;54.90;;;;;;5073937;28;20883;-74
2023/12/09 07:33:43;;;;;;;2.03;1.57;;;21.70;54.90;;;;;;5074698;28;20495;-73
2023/12/09 07:36:11;;;;;;;1.37;1.27;;;21.70;54.90;;;;;;5072847;28;20533;-73
2023/12/09 07:38:40;;;;;;;1.60;1.50;;;21.70;54.90;;;;;;5072224;28;20479;-73
2023/12/09 07:41:08;;;;;;;1.27;1.20;;;21.70;55.00;;;;;;5069906;28;20457;-73
2023/12/09 07:43:38;;;;;;;4.60;1.53;;;21.70;55.00;;;;;;5070272;28;20447;-72
2023/12/09 07:46:08;;;;;;;3.87;1.40;;;21.80;55.00;;;;;;5068667;28;20461;-73
2023/12/09 07:48:36;;;;;;;1.67;1.50;;;21.80;54.90;;;;;;5072452;28;20945;-73
2023/12/09 07:51:05;;;;;;;1.60;1.20;;;21.80;54.90;;;;;;5081098;28;20484;-74
2023/12/09 07:53:33;;;;;;;1.77;1.67;;;21.80;54.90;;;;;;5076155;28;20555;-73
2023/12/09 07:56:01;;;;;;;3.60;1.60;;;21.80;54.80;;;;;;5082633;28;20553;-73
2023/12/09 07:58:29;;;;;;;2.60;1.83;;;21.80;54.80;;;;;;5073396;28;20478;-73
2023/12/09 08:01:00;;;;;;;1.53;1.43;;;21.80;54.80;;;;;;5073102;28;20456;-73
2023/12/09 08:03:30;;;;;;;1.40;1.10;;;21.80;54.80;;;;;;5076183;28;20489;-73
2023/12/09 08:05:59;;;;;;;1.90;1.70;;;21.80;54.70;;;;;;5071868;28;21230;-73
2023/12/09 08:08:28;;;;;;;1.53;1.43;;;21.80;54.80;;;;;;5078240;28;20453;-74
2023/12/09 08:10:56;;;;;;;1.60;1.43;;;21.80;54.80;;;;;;5071434;28;20463;-72
2023/12/09 08:13:24;;;;;;;1.70;1.60;;;21.80;54.90;;;;;;5064005;28;20462;-71
2023/12/09 08:15:53;;;;;;;2.73;1.43;;;21.80;55.00;;;;;;5079709;28;20472;-71
2023/12/09 08:18:22;;;;;;;2.73;1.60;;;21.80;55.00;;;;;;5078679;28;20843;-74
2023/12/09 08:20:51;;;;;;;2.57;1.40;;;21.80;55.10;;;;;;5075377;28;20456;-73
2023/12/09 08:23:19;;;;;;;1.40;1.30;;;21.80;55.10;;;;;;5077417;28;20947;-74
2023/12/09 08:25:48;;;;;;;2.00;1.50;;;21.80;55.20;;;;;;5076423;28;21009;-76
2023/12/09 08:28:16;;;;;;;3.40;1.30;;;21.80;55.20;;;;;;5080888;28;20440;-75
2023/12/09 08:30:46;;;;;;;3.73;1.60;;;21.80;55.20;;;;;;5077335;28;21116;-75
2023/12/09 08:33:15;;;;;;;2.30;1.70;;;21.80;55.30;;;;;;5077387;28;20967;-75
2023/12/09 08:35:44;;;;;;;2.43;2.27;;;21.80;55.30;;;;;;5079086;28;20530;-75
2023/12/09 08:38:13;;;;;;;4.57;2.00;;;21.80;55.30;;;;;;5074091;28;20459;-75
2023/12/09 08:40:41;;;;;;;1.43;1.33;;;21.90;55.30;;;;;;5076795;28;20437;-75
2023/12/09 08:43:09;;;;;;;3.40;1.63;;;21.80;55.20;;;;;;5076453;28;20542;-75
2023/12/09 08:45:37;;;;;;;2.23;1.80;;;21.90;55.30;;;;;;5070608;28;20543;-75
2023/12/09 08:48:06;;;;;;;6.00;2.80;;;21.90;55.40;;;;;;5064716;28;20511;-75
2023/12/09 08:50:35;;;;;;;3.90;2.80;;;21.90;55.40;;;;;;5071539;28;20465;-75
2023/12/09 08:53:04;;;;;;;3.87;2.60;;;21.90;55.50;;;;;;5072215;28;20449;-75
2023/12/09 08:55:33;;;;;;;11.53;3.10;;;21.90;55.40;;;;;;5070585;28;20936;-75
2023/12/09 08:58:01;;;;;;;8.00;4.37;;;21.90;55.30;;;;;;5070383;28;20514;-75
2023/12/09 09:00:30;;;;;;;13.57;5.73;;;21.90;55.30;;;;;;5082026;28;20455;-75
2023/12/09 09:02:58;;;;;;;12.13;7.03;;;21.90;55.30;;;;;;5071747;28;20523;-75
2023/12/09 09:05:27;;;;;;;12.80;6.77;;;21.90;55.40;;;;;;5070821;28;20507;-75
2023/12/09 09:07:56;;;;;;;16.63;6.40;;;21.90;55.30;;;;;;5071007;28;20476;-75
2023/12/09 09:10:25;;;;;;;13.77;6.70;;;21.90;55.40;;;;;;5075171;28;20878;-75
2023/12/09 09:12:53;;;;;;;13.87;6.73;;;21.90;55.40;;;;;;5073838;28;20504;-75
2023/12/09 09:15:22;;;;;;;9.50;5.80;;;21.90;55.30;;;;;;5072692;28;20532;-77
2023/12/09 09:17:51;;;;;;;12.20;7.83;;;21.90;55.30;;;;;;5075108;28;20470;-75
2023/12/09 09:20:19;;;;;;;14.33;7.03;;;21.90;55.40;;;;;;5070516;28;20454;-75
2023/12/09 09:22:47;;;;;;;13.37;7.47;;;21.90;55.30;;;;;;5075015;28;20489;-75
2023/12/09 09:25:17;;;;;;;14.17;7.30;;;21.90;55.30;;;;;;5065952;28;20949;-75
2023/12/09 09:27:47;;;;;;;19.37;7.27;;;21.90;55.30;;;;;;5077061;28;20837;-75
2023/12/09 09:30:19;;;;;;;16.67;6.30;;;21.90;55.50;;;;;;5070275;28;20449;-75
2023/12/09 09:32:48;;;;;;;7.97;6.07;;;21.90;55.50;;;;;;5074646;28;20467;-75
2023/12/09 09:35:16;;;;;;;13.30;6.83;;;21.90;55.50;;;;;;5082036;28;20445;-75
2023/12/09 09:37:44;;;;;;;14.77;6.13;;;21.90;55.40;;;;;;5076426;28;21584;-75
2023/12/09 09:40:14;;;;;;;9.43;6.27;;;21.90;55.40;;;;;;5077713;28;20447;-76
2023/12/09 09:42:50;;;;;;;12.90;5.97;;;21.90;55.40;;;;;;5073913;28;20452;-75
2023/12/09 09:45:23;;;;;;;10.13;5.70;;;21.90;55.40;;;;;;5079740;28;20452;-76
2023/12/09 09:48:03;;;;;;;12.80;5.53;;;21.90;55.40;;;;;;5079425;28;20453;-75
2023/12/09 09:50:39;;;;;;;6.50;5.40;;;21.90;55.50;;;;;;5078884;28;20439;-75
2023/12/09 09:53:09;;;;;;;9.60;5.37;;;21.80;55.50;;;;;;5079410;28;20447;-75
2023/12/09 09:55:41;;;;;;;10.50;6.07;;;21.80;55.50;;;;;;5075957;28;20449;-76
2023/12/09 09:58:12;;;;;;;11.17;5.67;;;21.90;55.50;;;;;;5075627;28;20480;-75
2023/12/09 10:00:41;;;;;;;9.17;5.30;;;21.90;55.60;;;;;;5076250;28;20452;-75
2023/12/09 10:03:10;;;;;;;8.63;5.23;;;21.90;55.60;;;;;;5076147;28;20565;-75
2023/12/09 10:05:38;;;;;;;9.90;5.33;;;21.90;55.60;;;;;;5070055;28;20470;-76
2023/12/09 10:08:06;;;;;;;8.70;5.83;;;21.90;55.60;;;;;;5079570;28;20735;-74
2023/12/09 10:10:35;;;;;;;8.10;5.73;;;21.90;55.60;;;;;;5078261;28;20511;-75
2023/12/09 10:13:03;;;;;;;8.40;5.43;;;21.90;55.60;;;;;;5076362;28;20472;-75
2023/12/09 10:15:33;;;;;;;7.97;5.50;;;21.90;55.60;;;;;;5083551;28;21139;-75
2023/12/09 10:18:03;;;;;;;8.17;4.80;;;21.90;55.60;;;;;;5073286;28;20991;-75
2023/12/09 10:20:35;;;;;;;7.03;5.30;;;21.90;55.60;;;;;;5082278;28;20452;-75
2023/12/09 10:23:03;;;;;;;8.77;5.30;;;21.90;55.60;;;;;;5084928;28;20485;-75
2023/12/09 10:25:31;;;;;;;8.47;5.30;;;22.00;55.60;;;;;;5074999;28;20940;-75
2023/12/09 10:28:00;;;;;;;6.10;5.47;;;22.00;55.70;;;;;;5081497;28;20456;-75
2023/12/09 10:30:28;;;;;;;12.23;4.87;;;22.00;55.70;;;;;;5079823;28;20536;-75
2023/12/09 10:33:00;;;;;;;8.47;4.30;;;22.00;55.70;;;;;;5081371;28;20491;-75
2023/12/09 10:35:28;;;;;;;7.77;5.00;;;22.00;55.70;;;;;;5077246;28;20441;-75
2023/12/09 10:38:01;;;;;;;4.93;4.43;;;22.00;55.70;;;;;;5081175;28;20472;-75
2023/12/09 10:40:30;;;;;;;8.13;5.17;;;22.00;55.70;;;;;;5084582;28;20934;-75
2023/12/09 10:42:58;;;;;;;9.80;5.37;;;22.10;55.70;;;;;;5071459;28;20446;-75
2023/12/09 10:45:26;;;;;;;8.20;4.13;;;22.10;55.70;;;;;;5084103;28;20501;-76
2023/12/09 10:47:55;;;;;;;6.50;4.50;;;22.10;55.60;;;;;;5083851;28;20454;-76
2023/12/09 10:50:25;;;;;;;5.27;4.10;;;22.10;55.60;;;;;;5080639;28;20528;-75
2023/12/09 10:52:53;;;;;;;6.20;4.43;;;22.10;55.60;;;;;;5079537;28;20939;-75
2023/12/09 10:55:21;;;;;;;6.40;4.60;;;22.10;55.50;;;;;;5070861;28;20454;-75
2023/12/09 10:57:51;;;;;;;5.67;3.80;;;22.10;55.50;;;;;;5075305;28;21033;-75
2023/12/09 11:00:20;;;;;;;5.73;4.20;;;22.10;55.50;;;;;;5081862;28;20455;-75
2023/12/09 11:02:50;;;;;;;8.63;5.30;;;22.10;55.50;;;;;;5078834;28;21009;-76
2023/12/09 11:05:19;;;;;;;5.20;3.97;;;22.10;55.50;;;;;;5069132;28;20854;-76
2023/12/09 11:07:50;;;;;;;6.77;3.80;;;22.10;55.50;;;;;;5081745;28;20479;-76
2023/12/09 11:10:20;;;;;;;5.90;4.50;;;22.10;55.50;;;;;;5071383;28;20452;-75
2023/12/09 11:12:48;;;;;;;7.57;3.97;;;22.10;55.60;;;;;;5075242;28;20444;-76
2023/12/09 11:15:28;;;;;;;6.33;4.23;;;22.10;55.60;;;;;;5078979;28;20562;-76
2023/12/09 11:18:06;;;;;;;5.73;5.10;;;22.10;55.60;;;;;;5072137;28;20651;-75
2023/12/09 11:20:38;;;;;;;7.13;4.17;;;22.10;55.60;;;;;;5081826;28;20452;-75
2023/12/09 11:23:11;;;;;;;6.67;4.40;;;22.10;55.70;;;;;;5087308;28;20456;-75
2023/12/09 11:25:41;;;;;;;4.50;3.70;;;22.00;55.70;;;;;;5071088;28;20805;-76
2023/12/09 11:28:12;;;;;;;5.47;4.17;;;22.00;55.70;;;;;;5084931;28;20456;-67
2023/12/09 11:30:42;;;;;;;5.97;4.07;;;22.00;55.80;;;;;;5072401;28;20453;-66
2023/12/09 11:33:11;;;;;;;8.37;4.20;;;22.10;55.90;;;;;;5077709;28;20490;-67
2023/12/09 11:35:41;;;;;;;4.07;3.77;;;22.10;55.90;;;;;;5076799;28;20463;-65
2023/12/09 11:38:11;;;;;;;3.23;2.90;;;22.10;55.80;;;;;;5079853;28;20823;-66
2023/12/09 11:40:40;;;;;;;5.50;3.90;;;22.10;55.80;;;;;;5074893;28;21217;-66
2023/12/09 11:43:09;;;;;;;5.10;3.87;;;22.10;55.80;;;;;;5073891;28;20465;-67
2023/12/09 11:45:37;;;;;;;6.57;4.13;;;22.20;55.80;;;;;;5070649;28;20465;-66
2023/12/09 11:48:06;;;;;;;5.50;4.30;;;22.20;55.70;;;;;;5071404;28;21760;-66
2023/12/09 11:50:35;;;;;;;7.63;4.20;;;22.20;55.70;;;;;;5076249;28;20498;-69
2023/12/09 11:53:03;;;;;;;4.97;3.50;;;22.30;55.60;;;;;;5080482;28;20454;-65
2023/12/09 11:55:33;;;;;;;3.70;3.20;;;22.30;55.60;;;;;;5082299;28;20453;-66
2023/12/09 11:58:03;;;;;;;6.43;3.47;;;22.30;55.60;;;;;;5079260;28;20476;-66
2023/12/09 12:00:31;;;;;;;4.80;3.30;;;22.40;55.50;;;;;;5075520;28;20530;-66
2023/12/09 12:03:00;;;;;;;9.33;3.80;;;22.40;55.50;;;;;;5074132;28;20483;-65
2023/12/09 12:05:28;;;;;;;4.73;4.00;;;22.40;55.50;;;;;;5074343;28;20446;-66
2023/12/09 12:07:57;;;;;;;3.73;3.33;;;22.40;55.50;;;;;;5074714;28;20452;-68
2023/12/09 12:10:25;;;;;;;5.67;3.60;;;22.40;55.40;;;;;;5072401;28;20448;-67
2023/12/09 12:12:55;;;;;;;3.57;3.27;;;22.40;55.40;;;;;;5068200;28;20481;-66
2023/12/09 12:15:23;;;;;;;4.63;3.67;;;22.40;55.40;;;;;;5070287;28;20469;-66
2023/12/09 12:17:52;;;;;;;6.97;4.03;;;22.40;55.40;;;;;;5076974;28;20615;-66
2023/12/09 12:20:21;;;;;;;7.73;3.77;;;22.40;55.40;;;;;;5072907;28;20456;-69
2023/12/09 12:22:49;;;;;;;4.60;3.10;;;22.40;55.40;;;;;;5075415;28;21332;-67
2023/12/09 12:25:17;;;;;;;5.73;3.30;;;22.40;55.40;;;;;;5073761;28;20448;-67
2023/12/09 12:27:46;;;;;;;6.10;4.10;;;22.40;55.40;;;;;;5072665;28;20495;-66
2023/12/09 12:30:17;;;;;;;4.37;3.37;;;22.40;55.50;;;;;;5070279;28;20463;-66
2023/12/09 12:32:54;;;;;;;5.63;2.93;;;22.30;55.50;;;;;;5071788;28;20455;-67
2023/12/09 12:35:24;;;;;;;5.47;3.50;;;22.30;55.60;;;;;;5071590;28;20441;-66
2023/12/09 12:37:52;;;;;;;9.50;3.80;;;22.30;55.60;;;;;;5077292;28;20821;-66
2023/12/09 12:40:21;;;;;;;5.43;3.60;;;22.30;55.70;;;;;;5073621;28;20902;-67
2023/12/09 12:42:50;;;;;;;3.90;3.30;;;22.20;55.70;;;;;;5082232;28;20451;-66
2023/12/09 12:45:20;;;;;;;3.70;3.17;;;22.20;55.70;;;;;;5080556;28;20453;-66
2023/12/09 12:47:51;;;;;;;4.93;3.10;;;22.20;55.80;;;;;;5076905;28;20493;-66
2023/12/09 12:50:20;;;;;;;5.30;3.23;;;22.20;55.80;;;;;;5075413;28;20449;-66
2023/12/09 12:52:48;;;;;;;5.63;3.07;;;22.20;55.80;;;;;;5083161;28;20457;-68
2023/12/09 12:55:16;;;;;;;6.30;3.50;;;22.20;55.80;;;;;;5075651;28;20452;-66